sensor_id;sensor_type;location;lat;lon;timestamp;temperature;humidity
26691;DHT22;14307;51.718;8.938;2022-11-20T00:00:48;-7.00;99.90
26691;DHT22;14307;51.718;8.938;2022-11-20T00:03:19;-7.00;99.90
26691;DHT22;14307;51.718;8.938;2022-11-20T00:05:46;-7.00;99.90
26691;DHT22;14307;51.718;8.938;2022-11-20T00:08:12;-7.10;99.90
26691;DHT22;14307;51.718;8.938;2022-11-20T00:10:40;-7.10;99.90
26691;DHT22;14307;51.718;8.938;2022-11-20T00:13:07;-7.10;99.90
26691;DHT22;14307;51.718;8.938;2022-11-20T00:15:34;-7.20;99.90
26691;DHT22;14307;51.718;8.938;2022-11-20T00:18:00;-7.20;99.90
26691;DHT22;14307;51.718;8.938;2022-11-20T00:20:27;-7.20;99.90
26691;DHT22;14307;51.718;8.938;2022-11-20T00:22:53;-7.30;99.90
26691;DHT22;14307;51.718;8.938;2022-11-20T00:25:20;-7.20;99.90
26691;DHT22;14307;51.718;8.938;2022-11-20T00:27:47;-7.20;99.90
26691;DHT22;14307;51.718;8.938;2022-11-20T00:30:14;-7.10;99.90
26691;DHT22;14307;51.718;8.938;2022-11-20T00:32:41;-7.00;99.90
26691;DHT22;14307;51.718;8.938;2022-11-20T00:35:07;-7.10;99.90
26691;DHT22;14307;51.718;8.938;2022-11-20T00:37:34;-7.10;99.90
26691;DHT22;14307;51.718;8.938;2022-11-20T00:40:01;-7.10;99.90
26691;DHT22;14307;51.718;8.938;2022-11-20T00:42:28;-6.90;99.90
26691;DHT22;14307;51.718;8.938;2022-11-20T00:44:54;-6.90;99.90
26691;DHT22;14307;51.718;8.938;2022-11-20T00:47:21;-6.70;99.90
26691;DHT22;14307;51.718;8.938;2022-11-20T00:49:48;-6.80;99.90
26691;DHT22;14307;51.718;8.938;2022-11-20T00:52:14;-6.70;99.90
26691;DHT22;14307;51.718;8.938;2022-11-20T00:54:41;-6.80;99.90
26691;DHT22;14307;51.718;8.938;2022-11-20T00:57:07;-6.90;99.90
26691;DHT22;14307;51.718;8.938;2022-11-20T00:59:34;-6.90;99.90
26691;DHT22;14307;51.718;8.938;2022-11-20T01:02:01;-6.90;99.90
26691;DHT22;14307;51.718;8.938;2022-11-20T01:04:27;-6.90;99.90
26691;DHT22;14307;51.718;8.938;2022-11-20T01:06:54;-7.00;99.90
26691;DHT22;14307;51.718;8.938;2022-11-20T01:09:21;-7.00;99.90
26691;DHT22;14307;51.718;8.938;2022-11-20T01:11:48;-6.90;99.90
26691;DHT22;14307;51.718;8.938;2022-11-20T01:14:18;-7.20;99.90
26691;DHT22;14307;51.718;8.938;2022-11-20T01:16:48;-7.30;99.90
26691;DHT22;14307;51.718;8.938;2022-11-20T01:19:17;-7.30;99.90
26691;DHT22;14307;51.718;8.938;2022-11-20T01:21:48;-7.40;99.90
26691;DHT22;14307;51.718;8.938;2022-11-20T01:24:17;-7.50;99.90
26691;DHT22;14307;51.718;8.938;2022-11-20T01:26:46;-7.60;99.90
26691;DHT22;14307;51.718;8.938;2022-11-20T01:29:16;-7.50;99.90
26691;DHT22;14307;51.718;8.938;2022-11-20T01:31:44;-7.60;99.90
26691;DHT22;14307;51.718;8.938;2022-11-20T01:34:17;-7.50;99.90
26691;DHT22;14307;51.718;8.938;2022-11-20T01:36:44;-7.40;99.90
26691;DHT22;14307;51.718;8.938;2022-11-20T01:39:14;-7.50;99.90
26691;DHT22;14307;51.718;8.938;2022-11-20T01:41:42;-7.50;99.90
26691;DHT22;14307;51.718;8.938;2022-11-20T01:44:52;-7.40;99.90
26691;DHT22;14307;51.718;8.938;2022-11-20T01:47:40;-7.30;99.90
26691;DHT22;14307;51.718;8.938;2022-11-20T01:50:17;-7.30;99.90
26691;DHT22;14307;51.718;8.938;2022-11-20T01:52:51;-7.30;99.90
26691;DHT22;14307;51.718;8.938;2022-11-20T01:55:26;-7.10;99.90
26691;DHT22;14307;51.718;8.938;2022-11-20T01:57:55;-7.30;99.90
26691;DHT22;14307;51.718;8.938;2022-11-20T02:00:22;-7.20;99.90
26691;DHT22;14307;51.718;8.938;2022-11-20T02:02:57;-7.40;99.90
26691;DHT22;14307;51.718;8.938;2022-11-20T02:08:17;-7.40;99.90
26691;DHT22;14307;51.718;8.938;2022-11-20T02:10:45;-7.50;99.90
26691;DHT22;14307;51.718;8.938;2022-11-20T02:13:11;-7.50;99.90
26691;DHT22;14307;51.718;8.938;2022-11-20T02:15:57;-7.50;99.90
26691;DHT22;14307;51.718;8.938;2022-11-20T02:18:24;-7.50;99.90
26691;DHT22;14307;51.718;8.938;2022-11-20T02:20:55;-7.40;99.90
26691;DHT22;14307;51.718;8.938;2022-11-20T02:26:16;-7.50;99.90
26691;DHT22;14307;51.718;8.938;2022-11-20T02:28:43;-7.40;99.90
26691;DHT22;14307;51.718;8.938;2022-11-20T02:31:09;-7.60;99.90
26691;DHT22;14307;51.718;8.938;2022-11-20T02:33:36;-7.60;99.90
26691;DHT22;14307;51.718;8.938;2022-11-20T02:36:03;-7.50;99.90
26691;DHT22;14307;51.718;8.938;2022-11-20T02:38:30;-7.50;99.90
26691;DHT22;14307;51.718;8.938;2022-11-20T02:40:57;-7.60;99.90
26691;DHT22;14307;51.718;8.938;2022-11-20T02:43:23;-7.60;99.90
26691;DHT22;14307;51.718;8.938;2022-11-20T02:45:50;-7.60;99.90
26691;DHT22;14307;51.718;8.938;2022-11-20T02:48:17;-7.60;99.90
26691;DHT22;14307;51.718;8.938;2022-11-20T02:50:43;-7.60;99.90
26691;DHT22;14307;51.718;8.938;2022-11-20T02:53:10;-7.60;99.90
26691;DHT22;14307;51.718;8.938;2022-11-20T02:55:37;-7.70;99.90
26691;DHT22;14307;51.718;8.938;2022-11-20T02:58:04;-7.70;99.90
26691;DHT22;14307;51.718;8.938;2022-11-20T03:00:31;-7.80;99.90
26691;DHT22;14307;51.718;8.938;2022-11-20T03:02:58;-7.80;99.90
26691;DHT22;14307;51.718;8.938;2022-11-20T03:05:25;-7.90;99.90
26691;DHT22;14307;51.718;8.938;2022-11-20T03:07:52;-7.90;99.90
26691;DHT22;14307;51.718;8.938;2022-11-20T03:10:18;-8.00;99.90
26691;DHT22;14307;51.718;8.938;2022-11-20T03:12:45;-8.00;99.90
26691;DHT22;14307;51.718;8.938;2022-11-20T03:15:12;-8.00;99.90
26691;DHT22;14307;51.718;8.938;2022-11-20T03:17:38;-8.00;99.90
26691;DHT22;14307;51.718;8.938;2022-11-20T03:20:06;-7.80;99.90
26691;DHT22;14307;51.718;8.938;2022-11-20T03:22:33;-7.80;99.90
26691;DHT22;14307;51.718;8.938;2022-11-20T03:24:59;-7.70;99.90
26691;DHT22;14307;51.718;8.938;2022-11-20T03:27:26;-7.80;99.90
26691;DHT22;14307;51.718;8.938;2022-11-20T03:29:53;-7.90;99.90
26691;DHT22;14307;51.718;8.938;2022-11-20T03:32:19;-8.00;99.90
26691;DHT22;14307;51.718;8.938;2022-11-20T03:34:46;-8.10;99.90
26691;DHT22;14307;51.718;8.938;2022-11-20T03:37:12;-8.20;99.90
26691;DHT22;14307;51.718;8.938;2022-11-20T03:39:39;-8.20;99.90
26691;DHT22;14307;51.718;8.938;2022-11-20T03:42:06;-8.20;99.90
26691;DHT22;14307;51.718;8.938;2022-11-20T03:44:53;-8.20;99.90
26691;DHT22;14307;51.718;8.938;2022-11-20T03:47:19;-8.10;99.90
26691;DHT22;14307;51.718;8.938;2022-11-20T03:49:46;-8.00;99.90
26691;DHT22;14307;51.718;8.938;2022-11-20T03:52:13;-7.90;99.90
26691;DHT22;14307;51.718;8.938;2022-11-20T03:54:40;-7.70;99.90
26691;DHT22;14307;51.718;8.938;2022-11-20T03:57:06;-7.80;99.90
26691;DHT22;14307;51.718;8.938;2022-11-20T03:59:33;-7.70;99.90
26691;DHT22;14307;51.718;8.938;2022-11-20T04:02:00;-7.60;99.90
26691;DHT22;14307;51.718;8.938;2022-11-20T04:04:27;-7.70;99.90
26691;DHT22;14307;51.718;8.938;2022-11-20T04:06:53;-7.70;99.90
26691;DHT22;14307;51.718;8.938;2022-11-20T04:09:20;-7.70;99.90
26691;DHT22;14307;51.718;8.938;2022-11-20T04:11:47;-7.80;99.90
26691;DHT22;14307;51.718;8.938;2022-11-20T04:14:15;-7.70;99.90
26691;DHT22;14307;51.718;8.938;2022-11-20T04:16:42;-7.80;99.90
26691;DHT22;14307;51.718;8.938;2022-11-20T04:19:12;-8.00;99.90
26691;DHT22;14307;51.718;8.938;2022-11-20T04:21:39;-8.00;99.90
26691;DHT22;14307;51.718;8.938;2022-11-20T04:24:06;-8.00;99.90
26691;DHT22;14307;51.718;8.938;2022-11-20T04:26:34;-7.80;99.90
26691;DHT22;14307;51.718;8.938;2022-11-20T04:29:01;-7.90;99.90
26691;DHT22;14307;51.718;8.938;2022-11-20T04:31:30;-8.10;99.90
26691;DHT22;14307;51.718;8.938;2022-11-20T04:34:02;-8.20;99.90
26691;DHT22;14307;51.718;8.938;2022-11-20T04:36:30;-8.30;99.90
26691;DHT22;14307;51.718;8.938;2022-11-20T04:39:03;-8.30;99.90
26691;DHT22;14307;51.718;8.938;2022-11-20T04:41:32;-8.40;99.90
26691;DHT22;14307;51.718;8.938;2022-11-20T04:44:00;-8.40;99.90
26691;DHT22;14307;51.718;8.938;2022-11-20T04:46:32;-8.40;99.90
26691;DHT22;14307;51.718;8.938;2022-11-20T04:48:59;-8.50;99.90
26691;DHT22;14307;51.718;8.938;2022-11-20T04:51:26;-8.50;99.90
26691;DHT22;14307;51.718;8.938;2022-11-20T04:53:53;-8.50;99.90
26691;DHT22;14307;51.718;8.938;2022-11-20T04:56:20;-8.60;99.90
26691;DHT22;14307;51.718;8.938;2022-11-20T04:58:47;-8.60;99.90
26691;DHT22;14307;51.718;8.938;2022-11-20T05:01:19;-8.60;99.90
26691;DHT22;14307;51.718;8.938;2022-11-20T05:03:47;-8.50;99.90
26691;DHT22;14307;51.718;8.938;2022-11-20T05:06:17;-8.30;99.90
26691;DHT22;14307;51.718;8.938;2022-11-20T05:08:44;-8.30;99.90
26691;DHT22;14307;51.718;8.938;2022-11-20T05:11:16;-8.40;99.90
26691;DHT22;14307;51.718;8.938;2022-11-20T05:13:43;-8.40;99.90
26691;DHT22;14307;51.718;8.938;2022-11-20T05:16:15;-8.50;99.90
26691;DHT22;14307;51.718;8.938;2022-11-20T05:18:43;-8.70;99.90
26691;DHT22;14307;51.718;8.938;2022-11-20T05:21:10;-8.70;99.90
26691;DHT22;14307;51.718;8.938;2022-11-20T05:23:38;-8.70;99.90
26691;DHT22;14307;51.718;8.938;2022-11-20T05:26:06;-8.60;99.90
26691;DHT22;14307;51.718;8.938;2022-11-20T05:28:34;-8.30;99.90
26691;DHT22;14307;51.718;8.938;2022-11-20T05:31:13;-8.40;99.90
26691;DHT22;14307;51.718;8.938;2022-11-20T05:33:41;-8.50;99.90
26691;DHT22;14307;51.718;8.938;2022-11-20T05:36:09;-8.40;99.90
26691;DHT22;14307;51.718;8.938;2022-11-20T05:38:36;-8.50;99.90
26691;DHT22;14307;51.718;8.938;2022-11-20T05:41:15;-8.50;99.90
26691;DHT22;14307;51.718;8.938;2022-11-20T05:43:43;-8.50;99.90
26691;DHT22;14307;51.718;8.938;2022-11-20T05:46:13;-8.50;99.90
26691;DHT22;14307;51.718;8.938;2022-11-20T05:48:41;-8.30;99.90
26691;DHT22;14307;51.718;8.938;2022-11-20T05:51:10;-8.50;99.90
26691;DHT22;14307;51.718;8.938;2022-11-20T05:53:38;-8.60;99.90
26691;DHT22;14307;51.718;8.938;2022-11-20T05:56:14;-8.70;99.90
26691;DHT22;14307;51.718;8.938;2022-11-20T05:58:41;-8.50;99.90
26691;DHT22;14307;51.718;8.938;2022-11-20T06:01:20;-8.50;99.90
26691;DHT22;14307;51.718;8.938;2022-11-20T06:03:48;-8.40;99.90
26691;DHT22;14307;51.718;8.938;2022-11-20T06:06:18;-8.30;99.90
26691;DHT22;14307;51.718;8.938;2022-11-20T06:08:44;-8.20;99.90
26691;DHT22;14307;51.718;8.938;2022-11-20T06:11:13;-8.30;99.90
26691;DHT22;14307;51.718;8.938;2022-11-20T06:13:41;-8.30;99.90
26691;DHT22;14307;51.718;8.938;2022-11-20T06:16:09;-8.20;99.90
26691;DHT22;14307;51.718;8.938;2022-11-20T06:18:37;-8.10;99.90
26691;DHT22;14307;51.718;8.938;2022-11-20T06:21:16;-8.10;99.90
26691;DHT22;14307;51.718;8.938;2022-11-20T06:23:43;-8.30;99.90
26691;DHT22;14307;51.718;8.938;2022-11-20T06:26:14;-8.30;99.90
26691;DHT22;14307;51.718;8.938;2022-11-20T06:28:41;-8.30;99.90
26691;DHT22;14307;51.718;8.938;2022-11-20T06:31:10;-8.20;99.90
26691;DHT22;14307;51.718;8.938;2022-11-20T06:33:38;-8.00;99.90
26691;DHT22;14307;51.718;8.938;2022-11-20T06:36:05;-8.00;99.90
26691;DHT22;14307;51.718;8.938;2022-11-20T06:38:37;-8.00;99.90
26691;DHT22;14307;51.718;8.938;2022-11-20T06:41:05;-8.00;99.90
26691;DHT22;14307;51.718;8.938;2022-11-20T06:43:33;-8.00;99.90
26691;DHT22;14307;51.718;8.938;2022-11-20T06:45:59;-7.90;99.90
26691;DHT22;14307;51.718;8.938;2022-11-20T06:48:27;-7.90;99.90
26691;DHT22;14307;51.718;8.938;2022-11-20T06:50:55;-7.80;99.90
26691;DHT22;14307;51.718;8.938;2022-11-20T06:53:23;-7.90;99.90
26691;DHT22;14307;51.718;8.938;2022-11-20T06:55:50;-7.80;99.90
26691;DHT22;14307;51.718;8.938;2022-11-20T06:58:17;-7.70;99.90
26691;DHT22;14307;51.718;8.938;2022-11-20T07:00:44;-7.70;99.90
26691;DHT22;14307;51.718;8.938;2022-11-20T07:03:12;-7.80;99.90
26691;DHT22;14307;51.718;8.938;2022-11-20T07:05:39;-7.70;99.90
26691;DHT22;14307;51.718;8.938;2022-11-20T07:08:07;-7.50;99.90
26691;DHT22;14307;51.718;8.938;2022-11-20T07:10:34;-7.50;99.90
26691;DHT22;14307;51.718;8.938;2022-11-20T07:13:01;-7.50;99.90
26691;DHT22;14307;51.718;8.938;2022-11-20T07:15:28;-7.50;99.90
26691;DHT22;14307;51.718;8.938;2022-11-20T07:17:55;-7.70;99.90
26691;DHT22;14307;51.718;8.938;2022-11-20T07:20:22;-7.60;99.90
26691;DHT22;14307;51.718;8.938;2022-11-20T07:22:53;-7.70;99.90
26691;DHT22;14307;51.718;8.938;2022-11-20T07:25:22;-7.70;99.90
26691;DHT22;14307;51.718;8.938;2022-11-20T07:27:49;-7.50;99.90
26691;DHT22;14307;51.718;8.938;2022-11-20T07:30:16;-7.60;99.90
26691;DHT22;14307;51.718;8.938;2022-11-20T07:32:46;-7.50;99.90
26691;DHT22;14307;51.718;8.938;2022-11-20T07:35:13;-7.40;99.90
26691;DHT22;14307;51.718;8.938;2022-11-20T07:37:40;-7.20;99.90
26691;DHT22;14307;51.718;8.938;2022-11-20T07:40:07;-7.10;99.90
26691;DHT22;14307;51.718;8.938;2022-11-20T07:42:34;-7.10;99.90
26691;DHT22;14307;51.718;8.938;2022-11-20T07:45:01;-7.10;99.90
26691;DHT22;14307;51.718;8.938;2022-11-20T07:47:27;-6.90;99.90
26691;DHT22;14307;51.718;8.938;2022-11-20T07:49:55;-6.80;99.90
26691;DHT22;14307;51.718;8.938;2022-11-20T07:52:21;-6.70;99.90
26691;DHT22;14307;51.718;8.938;2022-11-20T07:54:48;-6.50;99.90
26691;DHT22;14307;51.718;8.938;2022-11-20T07:57:14;-6.30;99.90
26691;DHT22;14307;51.718;8.938;2022-11-20T07:59:41;-6.20;99.90
26691;DHT22;14307;51.718;8.938;2022-11-20T08:02:10;-6.10;99.90
26691;DHT22;14307;51.718;8.938;2022-11-20T08:04:37;-6.00;99.90
26691;DHT22;14307;51.718;8.938;2022-11-20T08:07:04;-5.90;99.90
26691;DHT22;14307;51.718;8.938;2022-11-20T08:09:30;-5.90;99.90
26691;DHT22;14307;51.718;8.938;2022-11-20T08:11:57;-5.70;99.90
26691;DHT22;14307;51.718;8.938;2022-11-20T08:14:42;-5.60;99.90
26691;DHT22;14307;51.718;8.938;2022-11-20T08:17:09;-5.40;99.90
26691;DHT22;14307;51.718;8.938;2022-11-20T08:19:36;-5.40;99.90
26691;DHT22;14307;51.718;8.938;2022-11-20T08:22:02;-5.30;99.90
26691;DHT22;14307;51.718;8.938;2022-11-20T08:24:29;-5.10;99.90
26691;DHT22;14307;51.718;8.938;2022-11-20T08:26:59;-5.00;99.90
26691;DHT22;14307;51.718;8.938;2022-11-20T08:29:26;-4.80;99.90
26691;DHT22;14307;51.718;8.938;2022-11-20T08:31:53;-4.80;99.90
26691;DHT22;14307;51.718;8.938;2022-11-20T08:34:20;-4.70;99.90
26691;DHT22;14307;51.718;8.938;2022-11-20T08:36:47;-4.60;99.90
26691;DHT22;14307;51.718;8.938;2022-11-20T08:39:14;-4.40;99.90
26691;DHT22;14307;51.718;8.938;2022-11-20T08:41:41;-4.20;99.90
26691;DHT22;14307;51.718;8.938;2022-11-20T08:44:07;-4.40;99.90
26691;DHT22;14307;51.718;8.938;2022-11-20T08:46:39;-4.20;99.90
26691;DHT22;14307;51.718;8.938;2022-11-20T08:49:09;-4.00;99.90
26691;DHT22;14307;51.718;8.938;2022-11-20T08:51:37;-3.80;99.90
26691;DHT22;14307;51.718;8.938;2022-11-20T08:54:04;-3.70;99.90
26691;DHT22;14307;51.718;8.938;2022-11-20T08:56:31;-3.60;99.90
26691;DHT22;14307;51.718;8.938;2022-11-20T08:58:57;-3.50;99.90
26691;DHT22;14307;51.718;8.938;2022-11-20T09:01:46;-3.40;99.90
26691;DHT22;14307;51.718;8.938;2022-11-20T09:04:12;-3.40;99.90
26691;DHT22;14307;51.718;8.938;2022-11-20T09:06:40;-3.20;99.90
26691;DHT22;14307;51.718;8.938;2022-11-20T09:09:07;-3.10;99.90
26691;DHT22;14307;51.718;8.938;2022-11-20T09:11:34;-3.00;99.90
26691;DHT22;14307;51.718;8.938;2022-11-20T09:14:02;-2.80;99.90
26691;DHT22;14307;51.718;8.938;2022-11-20T09:16:30;-2.70;99.90
26691;DHT22;14307;51.718;8.938;2022-11-20T09:18:57;-2.60;99.90
26691;DHT22;14307;51.718;8.938;2022-11-20T09:21:44;-2.50;99.90
26691;DHT22;14307;51.718;8.938;2022-11-20T09:24:10;-2.40;99.90
26691;DHT22;14307;51.718;8.938;2022-11-20T09:26:37;-2.40;99.90
26691;DHT22;14307;51.718;8.938;2022-11-20T09:29:03;-2.30;99.90
26691;DHT22;14307;51.718;8.938;2022-11-20T09:31:30;-2.30;99.90
26691;DHT22;14307;51.718;8.938;2022-11-20T09:33:57;-2.30;99.90
26691;DHT22;14307;51.718;8.938;2022-11-20T09:36:23;-2.40;99.90
26691;DHT22;14307;51.718;8.938;2022-11-20T09:38:50;-2.50;99.90
26691;DHT22;14307;51.718;8.938;2022-11-20T09:41:36;-2.50;99.90
26691;DHT22;14307;51.718;8.938;2022-11-20T09:46:58;-2.20;99.90
26691;DHT22;14307;51.718;8.938;2022-11-20T09:54:46;-2.10;99.90
26691;DHT22;14307;51.718;8.938;2022-11-20T09:57:21;-2.10;99.90
26691;DHT22;14307;51.718;8.938;2022-11-20T09:59:57;-2.20;99.90
26691;DHT22;14307;51.718;8.938;2022-11-20T10:02:37;-2.00;99.90
26691;DHT22;14307;51.718;8.938;2022-11-20T10:05:20;-2.00;99.90
26691;DHT22;14307;51.718;8.938;2022-11-20T10:08:19;-1.90;99.90
26691;DHT22;14307;51.718;8.938;2022-11-20T10:11:13;-1.60;99.90
26691;DHT22;14307;51.718;8.938;2022-11-20T10:13:48;-1.50;99.90
26691;DHT22;14307;51.718;8.938;2022-11-20T10:16:46;-1.40;99.90
26691;DHT22;14307;51.718;8.938;2022-11-20T10:22:35;-1.00;99.90
26691;DHT22;14307;51.718;8.938;2022-11-20T10:25:20;-1.00;99.90
26691;DHT22;14307;51.718;8.938;2022-11-20T10:30:21;-0.40;99.90
26691;DHT22;14307;51.718;8.938;2022-11-20T10:33:13;-0.30;99.90
26691;DHT22;14307;51.718;8.938;2022-11-20T10:38:46;-0.50;99.90
26691;DHT22;14307;51.718;8.938;2022-11-20T10:41:21;-0.30;99.90
26691;DHT22;14307;51.718;8.938;2022-11-20T10:44:12;-0.10;99.90
26691;DHT22;14307;51.718;8.938;2022-11-20T10:46:44;0.00;99.90
26691;DHT22;14307;51.718;8.938;2022-11-20T10:49:20;-0.10;99.90
26691;DHT22;14307;51.718;8.938;2022-11-20T10:52:02;0.00;99.90
26691;DHT22;14307;51.718;8.938;2022-11-20T10:54:57;0.00;99.90
26691;DHT22;14307;51.718;8.938;2022-11-20T10:57:53;-0.10;99.90
26691;DHT22;14307;51.718;8.938;2022-11-20T11:00:22;0.20;99.90
26691;DHT22;14307;51.718;8.938;2022-11-20T11:02:53;0.30;99.90
26691;DHT22;14307;51.718;8.938;2022-11-20T11:05:22;0.70;99.90
26691;DHT22;14307;51.718;8.938;2022-11-20T11:07:56;1.10;99.90
26691;DHT22;14307;51.718;8.938;2022-11-20T11:10:39;1.20;99.90
26691;DHT22;14307;51.718;8.938;2022-11-20T11:13:23;1.40;99.90
26691;DHT22;14307;51.718;8.938;2022-11-20T11:15:50;1.50;99.90
26691;DHT22;14307;51.718;8.938;2022-11-20T11:18:25;1.40;99.90
26691;DHT22;14307;51.718;8.938;2022-11-20T11:20:53;1.70;99.90
26691;DHT22;14307;51.718;8.938;2022-11-20T11:23:31;1.60;99.90
26691;DHT22;14307;51.718;8.938;2022-11-20T11:25:59;1.60;99.90
26691;DHT22;14307;51.718;8.938;2022-11-20T11:28:27;1.60;99.90
26691;DHT22;14307;51.718;8.938;2022-11-20T11:30:54;1.70;99.90
26691;DHT22;14307;51.718;8.938;2022-11-20T11:33:31;1.80;99.90
26691;DHT22;14307;51.718;8.938;2022-11-20T11:36:03;1.90;99.90
26691;DHT22;14307;51.718;8.938;2022-11-20T11:38:39;2.00;99.90
26691;DHT22;14307;51.718;8.938;2022-11-20T11:41:12;1.90;99.90
26691;DHT22;14307;51.718;8.938;2022-11-20T11:43:39;2.00;99.90
26691;DHT22;14307;51.718;8.938;2022-11-20T11:54:45;2.30;99.90
26691;DHT22;14307;51.718;8.938;2022-11-20T12:05:11;2.50;99.90
26691;DHT22;14307;51.718;8.938;2022-11-20T12:14:03;2.60;99.90
26691;DHT22;14307;51.718;8.938;2022-11-20T12:16:35;2.60;99.90
26691;DHT22;14307;51.718;8.938;2022-11-20T12:19:02;2.70;99.90
26691;DHT22;14307;51.718;8.938;2022-11-20T12:38:23;2.20;99.90
26691;DHT22;14307;51.718;8.938;2022-11-20T12:41:03;2.30;99.90
26691;DHT22;14307;51.718;8.938;2022-11-20T12:43:38;2.40;99.90
26691;DHT22;14307;51.718;8.938;2022-11-20T12:46:46;2.40;99.90
26691;DHT22;14307;51.718;8.938;2022-11-20T12:49:26;2.40;99.90
26691;DHT22;14307;51.718;8.938;2022-11-20T12:55:16;2.50;99.90
26691;DHT22;14307;51.718;8.938;2022-11-20T12:57:55;2.40;99.90
26691;DHT22;14307;51.718;8.938;2022-11-20T13:00:24;2.40;99.90
26691;DHT22;14307;51.718;8.938;2022-11-20T13:03:22;2.30;99.90
26691;DHT22;14307;51.718;8.938;2022-11-20T13:06:10;2.30;99.90
26691;DHT22;14307;51.718;8.938;2022-11-20T13:09:04;2.10;99.90
26691;DHT22;14307;51.718;8.938;2022-11-20T13:11:42;1.90;99.90
26691;DHT22;14307;51.718;8.938;2022-11-20T13:16:49;1.80;99.90
26691;DHT22;14307;51.718;8.938;2022-11-20T13:19:18;1.80;99.90
26691;DHT22;14307;51.718;8.938;2022-11-20T13:21:47;1.90;99.90
26691;DHT22;14307;51.718;8.938;2022-11-20T13:26:46;1.70;99.90
26691;DHT22;14307;51.718;8.938;2022-11-20T13:29:20;1.70;99.90
26691;DHT22;14307;51.718;8.938;2022-11-20T13:31:48;1.70;99.90
26691;DHT22;14307;51.718;8.938;2022-11-20T13:34:25;1.80;99.90
26691;DHT22;14307;51.718;8.938;2022-11-20T13:36:54;1.80;99.90
26691;DHT22;14307;51.718;8.938;2022-11-20T13:42:03;1.60;99.90
26691;DHT22;14307;51.718;8.938;2022-11-20T13:45:02;1.50;99.90
26691;DHT22;14307;51.718;8.938;2022-11-20T13:47:35;1.50;99.90
26691;DHT22;14307;51.718;8.938;2022-11-20T13:50:04;1.50;99.90
26691;DHT22;14307;51.718;8.938;2022-11-20T13:53:00;1.50;99.90
26691;DHT22;14307;51.718;8.938;2022-11-20T13:55:38;1.60;99.90
26691;DHT22;14307;51.718;8.938;2022-11-20T14:00:57;1.50;99.90
26691;DHT22;14307;51.718;8.938;2022-11-20T14:03:25;1.40;99.90
26691;DHT22;14307;51.718;8.938;2022-11-20T14:06:27;1.40;99.90
26691;DHT22;14307;51.718;8.938;2022-11-20T14:08:55;1.30;99.90
26691;DHT22;14307;51.718;8.938;2022-11-20T14:11:25;1.20;99.90
26691;DHT22;14307;51.718;8.938;2022-11-20T14:13:57;1.20;99.90
26691;DHT22;14307;51.718;8.938;2022-11-20T14:16:25;1.20;99.90
26691;DHT22;14307;51.718;8.938;2022-11-20T14:18:53;1.20;99.90
26691;DHT22;14307;51.718;8.938;2022-11-20T14:21:28;1.20;99.90
26691;DHT22;14307;51.718;8.938;2022-11-20T14:24:06;1.20;99.90
26691;DHT22;14307;51.718;8.938;2022-11-20T14:26:33;1.20;99.90
26691;DHT22;14307;51.718;8.938;2022-11-20T14:29:00;1.20;99.90
26691;DHT22;14307;51.718;8.938;2022-11-20T14:31:27;1.20;99.90
26691;DHT22;14307;51.718;8.938;2022-11-20T14:33:55;1.20;99.90
26691;DHT22;14307;51.718;8.938;2022-11-20T14:36:24;1.30;99.90
26691;DHT22;14307;51.718;8.938;2022-11-20T14:38:52;1.30;99.90
26691;DHT22;14307;51.718;8.938;2022-11-20T14:41:22;1.20;99.90
26691;DHT22;14307;51.718;8.938;2022-11-20T14:43:57;1.20;99.90
26691;DHT22;14307;51.718;8.938;2022-11-20T14:46:27;1.10;99.90
26691;DHT22;14307;51.718;8.938;2022-11-20T14:48:56;1.00;99.90
26691;DHT22;14307;51.718;8.938;2022-11-20T14:53:53;0.90;99.90
26691;DHT22;14307;51.718;8.938;2022-11-20T14:56:24;0.90;99.90
26691;DHT22;14307;51.718;8.938;2022-11-20T14:58:57;0.80;99.90
26691;DHT22;14307;51.718;8.938;2022-11-20T15:01:29;0.80;99.90
26691;DHT22;14307;51.718;8.938;2022-11-20T15:06:28;0.70;99.90
26691;DHT22;14307;51.718;8.938;2022-11-20T15:08:55;0.70;99.90
26691;DHT22;14307;51.718;8.938;2022-11-20T15:11:29;0.70;99.90
26691;DHT22;14307;51.718;8.938;2022-11-20T15:13:58;0.70;99.90
26691;DHT22;14307;51.718;8.938;2022-11-20T15:16:30;0.70;99.90
26691;DHT22;14307;51.718;8.938;2022-11-20T15:18:58;0.70;99.90
26691;DHT22;14307;51.718;8.938;2022-11-20T15:21:25;0.70;99.90
26691;DHT22;14307;51.718;8.938;2022-11-20T15:23:52;0.70;99.90
26691;DHT22;14307;51.718;8.938;2022-11-20T15:26:29;0.70;99.90
26691;DHT22;14307;51.718;8.938;2022-11-20T15:28:55;0.80;99.90
26691;DHT22;14307;51.718;8.938;2022-11-20T15:31:23;0.60;99.90
26691;DHT22;14307;51.718;8.938;2022-11-20T15:33:50;0.70;99.90
26691;DHT22;14307;51.718;8.938;2022-11-20T15:36:17;0.70;99.90
26691;DHT22;14307;51.718;8.938;2022-11-20T15:38:44;0.80;99.90
26691;DHT22;14307;51.718;8.938;2022-11-20T15:41:11;0.70;99.90
26691;DHT22;14307;51.718;8.938;2022-11-20T15:43:38;0.70;99.90
26691;DHT22;14307;51.718;8.938;2022-11-20T15:46:08;0.80;99.90
26691;DHT22;14307;51.718;8.938;2022-11-20T15:48:42;0.80;99.90
26691;DHT22;14307;51.718;8.938;2022-11-20T15:51:31;0.70;99.90
26691;DHT22;14307;51.718;8.938;2022-11-20T15:53:58;0.70;99.90
26691;DHT22;14307;51.718;8.938;2022-11-20T15:56:25;0.70;99.90
26691;DHT22;14307;51.718;8.938;2022-11-20T15:58:52;0.70;99.90
26691;DHT22;14307;51.718;8.938;2022-11-20T16:01:21;0.70;99.90
26691;DHT22;14307;51.718;8.938;2022-11-20T16:03:48;0.60;99.90
26691;DHT22;14307;51.718;8.938;2022-11-20T16:06:15;0.60;99.90
26691;DHT22;14307;51.718;8.938;2022-11-20T16:08:42;0.60;99.90
26691;DHT22;14307;51.718;8.938;2022-11-20T16:11:13;0.60;99.90
26691;DHT22;14307;51.718;8.938;2022-11-20T16:13:41;0.50;99.90
26691;DHT22;14307;51.718;8.938;2022-11-20T16:16:37;0.50;99.90
26691;DHT22;14307;51.718;8.938;2022-11-20T16:19:04;0.50;99.90
26691;DHT22;14307;51.718;8.938;2022-11-20T16:21:34;0.60;99.90
26691;DHT22;14307;51.718;8.938;2022-11-20T16:24:05;0.60;99.90
26691;DHT22;14307;51.718;8.938;2022-11-20T16:26:33;0.70;99.90
26691;DHT22;14307;51.718;8.938;2022-11-20T16:29:01;0.60;99.90
26691;DHT22;14307;51.718;8.938;2022-11-20T16:31:29;0.60;99.90
26691;DHT22;14307;51.718;8.938;2022-11-20T16:33:58;0.60;99.90
26691;DHT22;14307;51.718;8.938;2022-11-20T16:36:26;0.60;99.90
26691;DHT22;14307;51.718;8.938;2022-11-20T16:38:55;0.60;99.90
26691;DHT22;14307;51.718;8.938;2022-11-20T16:41:23;0.50;99.90
26691;DHT22;14307;51.718;8.938;2022-11-20T16:43:52;0.50;99.90
26691;DHT22;14307;51.718;8.938;2022-11-20T16:46:21;0.50;99.90
26691;DHT22;14307;51.718;8.938;2022-11-20T16:49:02;0.50;99.90
26691;DHT22;14307;51.718;8.938;2022-11-20T16:51:33;0.50;99.90
26691;DHT22;14307;51.718;8.938;2022-11-20T16:54:02;0.50;99.90
26691;DHT22;14307;51.718;8.938;2022-11-20T16:56:29;0.60;99.90
26691;DHT22;14307;51.718;8.938;2022-11-20T16:58:57;0.50;99.90
26691;DHT22;14307;51.718;8.938;2022-11-20T17:01:25;0.60;99.90
26691;DHT22;14307;51.718;8.938;2022-11-20T17:04:04;0.50;99.90
26691;DHT22;14307;51.718;8.938;2022-11-20T17:06:36;0.50;99.90
26691;DHT22;14307;51.718;8.938;2022-11-20T17:09:06;0.60;99.90
26691;DHT22;14307;51.718;8.938;2022-11-20T17:11:36;0.60;99.90
26691;DHT22;14307;51.718;8.938;2022-11-20T17:14:03;0.60;99.90
26691;DHT22;14307;51.718;8.938;2022-11-20T17:16:34;0.60;99.90